createdAt,value
2023-01-05T00:00:00.774Z,95.9
2023-01-05T00:01:00.776Z,95.6
2023-01-05T00:02:00.844Z,95.6
2023-01-05T00:03:00.783Z,95.9
2023-01-05T00:04:00.890Z,95.9
2023-01-05T00:05:00.888Z,95.6
2023-01-05T00:06:00.835Z,95.9
2023-01-05T00:07:00.785Z,96
2023-01-05T00:08:00.693Z,96
2023-01-05T00:09:00.719Z,95.9
2023-01-05T00:10:00.741Z,95.6
2023-01-05T00:11:00.877Z,95.6
2023-01-05T00:12:00.712Z,95.6
2023-01-05T00:13:00.820Z,95.6
2023-01-05T00:14:00.735Z,95.6
2023-01-05T00:15:00.800Z,95.6
2023-01-05T00:16:00.829Z,95.6
2023-01-05T00:17:00.734Z,95.6
2023-01-05T00:18:00.702Z,95.7
2023-01-05T00:19:00.707Z,95.6
2023-01-05T00:20:00.743Z,95.7
2023-01-05T00:21:00.695Z,95.6
2023-01-05T00:22:00.723Z,95.7
2023-01-05T00:23:00.664Z,95.6
2023-01-05T00:24:00.680Z,95.6
2023-01-05T00:25:03.570Z,95.7
2023-01-05T00:26:00.686Z,95.6
2023-01-05T00:27:00.665Z,95.7
2023-01-05T00:28:00.673Z,95.7
2023-01-05T00:29:00.675Z,95.7
2023-01-05T00:30:00.698Z,95.6
2023-01-05T00:31:00.671Z,95.7
2023-01-05T00:32:00.727Z,95.7
2023-01-05T00:33:00.670Z,95.6
2023-01-05T00:34:00.677Z,95.6
2023-01-05T00:35:00.725Z,95.6
2023-01-05T00:36:00.704Z,95.6
2023-01-05T00:37:00.683Z,95.6
2023-01-05T00:38:00.692Z,95.7
2023-01-05T00:39:00.699Z,95.6
2023-01-05T00:40:00.700Z,95.6
2023-01-05T00:41:00.722Z,95.6
2023-01-05T00:42:00.684Z,95.6
2023-01-05T00:43:00.680Z,95.7
2023-01-05T00:44:00.683Z,95.7
2023-01-05T00:45:00.695Z,95.6
2023-01-05T00:46:00.746Z,95.6
2023-01-05T00:47:00.683Z,95.6
2023-01-05T00:48:00.744Z,95.6
2023-01-05T00:49:00.701Z,95.7
2023-01-05T00:50:00.703Z,95.7
2023-01-05T00:51:00.727Z,95.7
2023-01-05T00:52:00.701Z,95.6
2023-01-05T00:53:00.715Z,95.6
2023-01-05T00:54:00.693Z,95.7
2023-01-05T00:55:00.699Z,95.7
2023-01-05T00:56:00.713Z,95.6
2023-01-05T00:57:00.689Z,95.7
2023-01-05T00:58:00.720Z,95.6
2023-01-05T00:59:00.714Z,95.6
2023-01-05T01:00:00.700Z,95.6
2023-01-05T01:01:00.900Z,95.7
2023-01-05T01:02:00.962Z,95.6
2023-01-05T01:03:00.786Z,96
2023-01-05T01:04:00.729Z,95.6
2023-01-05T01:05:00.719Z,95.7
2023-01-05T01:06:00.731Z,95.7
2023-01-05T01:07:00.705Z,95.7
2023-01-05T01:08:00.728Z,95.6
2023-01-05T01:09:00.728Z,95.7
2023-01-05T01:10:00.711Z,95.7
2023-01-05T01:11:00.746Z,95.7
2023-01-05T01:12:00.719Z,95.7
2023-01-05T01:13:00.719Z,95.6
2023-01-05T01:14:00.712Z,95.7
2023-01-05T01:15:00.748Z,95.7
2023-01-05T01:16:00.731Z,95.7
2023-01-05T01:17:00.801Z,95.7
2023-01-05T01:18:00.730Z,95.7
2023-01-05T01:19:05.101Z,95.7
2023-01-05T01:20:00.766Z,95.7
2023-01-05T01:21:00.750Z,95.7
2023-01-05T01:22:00.730Z,95.7
2023-01-05T01:23:00.721Z,95.7
2023-01-05T01:24:00.739Z,95.7
2023-01-05T01:25:00.723Z,96
2023-01-05T01:26:00.764Z,95.7
2023-01-05T01:27:00.729Z,95.6
2023-01-05T01:28:00.724Z,96
2023-01-05T01:29:00.728Z,95.7
2023-01-05T01:30:00.731Z,96
2023-01-05T01:31:00.805Z,95.7
2023-01-05T01:32:00.747Z,96
2023-01-05T01:33:00.753Z,95.7
2023-01-05T01:34:00.763Z,96
2023-01-05T01:35:00.747Z,96
2023-01-05T01:36:00.763Z,96
2023-01-05T01:38:00.741Z,96
2023-01-05T01:39:00.754Z,96
2023-01-05T01:40:00.763Z,96
2023-01-05T01:41:00.762Z,96
2023-01-05T01:42:00.740Z,96
2023-01-05T01:43:00.739Z,96
2023-01-05T01:44:00.760Z,96
2023-01-05T01:45:00.786Z,95.7
2023-01-05T01:46:00.838Z,96
2023-01-05T01:47:00.749Z,96
2023-01-05T01:48:00.760Z,96
2023-01-05T01:49:00.813Z,96
2023-01-05T01:50:00.746Z,96
2023-01-05T01:51:06.305Z,95.7
2023-01-05T01:52:00.767Z,96
2023-01-05T01:53:00.754Z,96
2023-01-05T01:54:00.769Z,96
2023-01-05T01:55:00.768Z,96
2023-01-05T01:56:00.775Z,96
2023-01-05T01:57:00.756Z,96
2023-01-05T01:58:00.772Z,96
2023-01-05T01:59:00.791Z,96
2023-01-05T02:00:00.799Z,96
2023-01-05T02:01:01.036Z,96
2023-01-05T02:02:00.921Z,95.7
2023-01-05T02:03:00.767Z,96
2023-01-05T02:04:00.867Z,96
2023-01-05T02:05:00.759Z,96
2023-01-05T02:06:00.780Z,96
2023-01-05T02:07:00.770Z,96
2023-01-05T02:08:00.804Z,96
2023-01-05T02:09:00.766Z,95.7
2023-01-05T02:10:00.791Z,96
2023-01-05T02:11:00.811Z,95.7
2023-01-05T02:12:00.769Z,96
2023-01-05T02:13:00.779Z,95.7
2023-01-05T02:14:00.777Z,96
2023-01-05T02:15:00.783Z,96
2023-01-05T02:16:00.796Z,95.7
2023-01-05T02:17:00.870Z,95.7
2023-01-05T02:18:00.799Z,95.6
2023-01-05T02:19:00.797Z,95.6
2023-01-05T02:20:00.795Z,95.7
2023-01-05T02:21:00.802Z,95.7
2023-01-05T02:22:00.783Z,95.6
2023-01-05T02:23:00.804Z,95.6
2023-01-05T02:24:00.787Z,96
2023-01-05T02:25:00.788Z,95.7
2023-01-05T02:26:00.823Z,95.6
2023-01-05T02:27:00.797Z,95.7
2023-01-05T02:28:00.816Z,96
2023-01-05T02:29:00.795Z,96
2023-01-05T02:30:00.791Z,95.7
2023-01-05T02:31:00.862Z,95.7
2023-01-05T02:32:00.791Z,95.7
2023-01-05T02:33:00.818Z,95.7
2023-01-05T02:34:00.811Z,95.7
2023-01-05T02:35:00.795Z,95.7
2023-01-05T02:36:00.824Z,95.7
2023-01-05T02:37:00.795Z,95.7
2023-01-05T02:38:00.800Z,95.7
2023-01-05T02:39:00.802Z,95.6
2023-01-05T02:40:00.803Z,96
2023-01-05T02:41:00.817Z,95.7
2023-01-05T02:42:00.752Z,95.7
2023-01-05T02:43:00.750Z,95.7
2023-01-05T02:44:00.710Z,95.7
2023-01-05T02:45:00.684Z,95.7
2023-01-05T02:46:00.680Z,95.7
2023-01-05T02:47:00.631Z,95.7
2023-01-05T02:48:00.582Z,95.7
2023-01-05T02:49:00.566Z,95.7
2023-01-05T02:50:00.535Z,95.7
2023-01-05T02:51:00.497Z,95.7
2023-01-05T02:52:00.481Z,95.7
2023-01-05T02:53:00.456Z,95.7
2023-01-05T02:54:00.475Z,95.7
2023-01-05T02:55:00.476Z,95.7
2023-01-05T02:56:00.460Z,95.7
2023-01-05T02:57:00.466Z,95.7
2023-01-05T02:58:00.454Z,96
2023-01-05T02:59:00.452Z,96
2023-01-05T03:00:00.494Z,96
2023-01-05T03:01:02.389Z,95.7
2023-01-05T03:02:02.385Z,95.7
2023-01-05T03:03:02.331Z,96
2023-01-05T03:04:02.193Z,95.7
2023-01-05T03:05:02.217Z,96
2023-01-05T03:06:02.172Z,96
2023-01-05T03:07:02.184Z,96
2023-01-05T03:08:02.181Z,96
2023-01-05T03:09:02.198Z,95.7
2023-01-05T03:10:02.246Z,96
2023-01-05T03:11:02.193Z,96
2023-01-05T03:12:02.173Z,95.7
2023-01-05T03:13:02.186Z,96
2023-01-05T03:14:02.178Z,96
2023-01-05T03:15:02.199Z,96
2023-01-05T03:16:02.411Z,96
2023-01-05T03:17:02.186Z,95.7
2023-01-05T03:18:02.185Z,96
2023-01-05T03:19:02.192Z,96
2023-01-05T03:20:02.354Z,96
2023-01-05T03:21:02.211Z,95.7
2023-01-05T03:22:02.194Z,96
2023-01-05T03:23:02.199Z,95.7
2023-01-05T03:24:02.212Z,96
2023-01-05T03:25:02.217Z,95.7
2023-01-05T03:26:02.213Z,96
2023-01-05T03:27:02.191Z,96
2023-01-05T03:28:02.189Z,96
2023-01-05T03:29:02.201Z,95.7
2023-01-05T03:30:02.268Z,95.7
2023-01-05T03:31:02.234Z,96
2023-01-05T03:32:02.198Z,95.6
2023-01-05T03:33:02.197Z,95.7
2023-01-05T03:34:02.215Z,95.7
2023-01-05T03:35:02.223Z,96
2023-01-05T03:36:02.223Z,96
2023-01-05T03:37:02.211Z,95.6
2023-01-05T03:38:02.217Z,96
2023-01-05T03:39:02.208Z,96
2023-01-05T03:40:02.282Z,95.7
2023-01-05T03:41:02.225Z,96
2023-01-05T03:42:02.213Z,95.7
2023-01-05T03:43:02.214Z,95.7
2023-01-05T03:44:02.226Z,96
2023-01-05T03:45:02.255Z,95.7
2023-01-05T03:46:02.236Z,95.7
2023-01-05T03:47:02.212Z,95.7
2023-01-05T03:48:02.217Z,95.7
2023-01-05T03:49:02.248Z,95.7
2023-01-05T03:50:02.274Z,95.7
2023-01-05T03:51:02.261Z,95.7
2023-01-05T03:52:02.230Z,95.7
2023-01-05T03:53:02.216Z,95.7
2023-01-05T03:54:02.228Z,95.7
2023-01-05T03:55:02.276Z,95.7
2023-01-05T03:56:02.239Z,95.7
2023-01-05T03:57:02.246Z,95.7
2023-01-05T03:58:02.256Z,95.7
2023-01-05T03:59:02.237Z,95.7
2023-01-05T04:00:02.328Z,95.7
2023-01-05T04:01:02.446Z,95.7
2023-01-05T04:02:02.329Z,95.7
2023-01-05T04:03:02.276Z,95.7
2023-01-05T04:04:02.276Z,95.7
2023-01-05T04:05:02.268Z,95.4
2023-01-05T04:06:02.257Z,95.7
2023-01-05T04:07:02.231Z,95.7
2023-01-05T04:08:02.233Z,95.7
2023-01-05T04:09:02.245Z,95.7
2023-01-05T04:10:02.319Z,95.4
2023-01-05T04:11:02.259Z,95.7
2023-01-05T04:12:02.257Z,95.4
2023-01-05T04:13:02.241Z,95.4
2023-01-05T04:14:02.238Z,95.4
2023-01-05T04:15:02.313Z,95.7
2023-01-05T04:16:02.278Z,95.4
2023-01-05T04:17:02.247Z,95.4
2023-01-05T04:18:02.241Z,95.4
2023-01-05T04:19:02.247Z,95.4
2023-01-05T04:20:02.306Z,95.4
2023-01-05T04:21:02.272Z,95.4
2023-01-05T04:22:02.250Z,95.4
2023-01-05T04:23:02.276Z,95.4
2023-01-05T04:24:02.257Z,95.4
2023-01-05T04:25:02.341Z,95.4
2023-01-05T04:26:02.272Z,95.4
2023-01-05T04:27:02.256Z,95.4
2023-01-05T04:28:02.278Z,95.4
2023-01-05T04:29:02.281Z,95.4
2023-01-05T04:30:02.437Z,95.4
2023-01-05T04:31:02.308Z,95.4
2023-01-05T04:32:02.255Z,95.4
2023-01-05T04:33:02.266Z,95.7
2023-01-05T04:34:02.270Z,95.4
2023-01-05T04:35:08.830Z,95.7
2023-01-05T04:36:02.285Z,95.7
2023-01-05T04:37:02.265Z,95.7
2023-01-05T04:38:02.272Z,95.7
2023-01-05T04:39:02.300Z,95.7
2023-01-05T04:40:02.341Z,95.4
2023-01-05T04:41:02.289Z,95.7
2023-01-05T04:42:02.280Z,95.7
2023-01-05T04:43:02.274Z,95.7
2023-01-05T04:44:02.298Z,95.7
2023-01-05T04:45:02.298Z,95.7
2023-01-05T04:46:02.397Z,95.7
2023-01-05T04:47:02.314Z,95.7
2023-01-05T04:48:02.292Z,95.7
2023-01-05T04:49:02.283Z,95.7
2023-01-05T04:50:02.337Z,95.7
2023-01-05T04:51:02.300Z,95.7
2023-01-05T04:52:02.292Z,95.7
2023-01-05T04:53:02.283Z,95.7
2023-01-05T04:54:02.282Z,96
2023-01-05T04:55:02.352Z,95.7
2023-01-05T04:56:02.309Z,95.7
2023-01-05T04:57:02.286Z,95.7
2023-01-05T04:58:05.652Z,95.7
2023-01-05T04:59:02.283Z,95.7
2023-01-05T05:00:02.419Z,95.7
2023-01-05T05:01:02.408Z,95.7
2023-01-05T05:02:02.747Z,96
2023-01-05T05:03:02.402Z,95.7
2023-01-05T05:04:02.315Z,95.7
2023-01-05T05:05:02.556Z,95.7
2023-01-05T05:06:02.299Z,96
2023-01-05T05:07:02.298Z,96
2023-01-05T05:08:02.322Z,95.7
2023-01-05T05:09:02.303Z,95.7
2023-01-05T05:10:02.410Z,95.7
2023-01-05T05:11:02.458Z,95.7
2023-01-05T05:12:02.296Z,95.7
2023-01-05T05:13:02.389Z,95.7
2023-01-05T05:14:02.365Z,95.7
2023-01-05T05:15:02.355Z,95.7
2023-01-05T05:16:02.465Z,95.7
2023-01-05T05:17:02.369Z,96
2023-01-05T05:18:08.674Z,95.7
2023-01-05T05:19:02.443Z,95.7
2023-01-05T05:20:02.434Z,95.7
2023-01-05T05:21:02.412Z,95.7
2023-01-05T05:22:02.378Z,95.7
2023-01-05T05:23:02.477Z,95.7
2023-01-05T05:24:02.457Z,95.7
2023-01-05T05:25:02.483Z,96
2023-01-05T05:26:02.434Z,95.7
2023-01-05T05:27:02.494Z,95.7
2023-01-05T05:28:02.475Z,96
2023-01-05T05:29:02.432Z,96
2023-01-05T05:30:02.491Z,95.7
2023-01-05T05:31:02.480Z,96
2023-01-05T05:32:02.482Z,96
2023-01-05T05:33:02.513Z,96
2023-01-05T05:34:02.495Z,96
2023-01-05T05:35:02.510Z,96
2023-01-05T05:36:02.467Z,95.7
2023-01-05T05:37:02.529Z,95.7
2023-01-05T05:38:02.510Z,96
2023-01-05T05:39:02.472Z,96
2023-01-05T05:40:02.475Z,96
2023-01-05T05:41:02.489Z,96
2023-01-05T05:42:02.583Z,96
2023-01-05T05:43:02.513Z,96
2023-01-05T05:44:02.451Z,96
2023-01-05T05:45:02.395Z,95.7
2023-01-05T05:46:02.429Z,95.7
2023-01-05T05:47:02.524Z,95.7
2023-01-05T05:48:02.353Z,96
2023-01-05T05:49:02.346Z,95.7
2023-01-05T05:50:02.446Z,95.7
2023-01-05T05:51:02.374Z,95.7
2023-01-05T05:52:02.380Z,95.7
2023-01-05T05:53:02.397Z,96
2023-01-05T05:54:02.357Z,95.7
2023-01-05T05:55:02.398Z,95.7
2023-01-05T05:56:02.383Z,96
2023-01-05T05:57:02.390Z,95.7
2023-01-05T05:58:02.375Z,95.7
2023-01-05T05:59:02.361Z,95.7
2023-01-05T06:00:02.546Z,95.7
2023-01-05T06:01:02.436Z,96
2023-01-05T06:02:02.435Z,95.7
2023-01-05T06:03:02.440Z,95.7
2023-01-05T06:04:02.383Z,95.7
2023-01-05T06:05:02.381Z,96
2023-01-05T06:06:02.396Z,96
2023-01-05T06:07:02.395Z,96
2023-01-05T06:08:02.385Z,95.7
2023-01-05T06:09:02.375Z,96
2023-01-05T06:10:02.495Z,95.7
2023-01-05T06:11:02.387Z,96
2023-01-05T06:12:02.413Z,95.7
2023-01-05T06:13:02.377Z,95.7
2023-01-05T06:14:02.379Z,95.7
2023-01-05T06:15:02.408Z,95.7
2023-01-05T06:16:02.443Z,95.7
2023-01-05T06:17:02.399Z,95.7
2023-01-05T06:18:02.396Z,95.7
2023-01-05T06:19:02.420Z,95.7
2023-01-05T06:20:02.489Z,95.7
2023-01-05T06:21:02.369Z,95.7
2023-01-05T06:22:02.412Z,95.7
2023-01-05T06:23:02.397Z,95.7
2023-01-05T06:24:02.386Z,95.7
2023-01-05T06:25:02.452Z,95.7
2023-01-05T06:26:02.383Z,95.7
2023-01-05T06:27:02.401Z,95.7
2023-01-05T06:28:02.389Z,95.7
2023-01-05T06:29:02.387Z,95.7
2023-01-05T06:30:02.441Z,95.7
2023-01-05T06:31:02.428Z,95.7
2023-01-05T06:32:02.417Z,95.7
2023-01-05T06:33:02.386Z,95.7
2023-01-05T06:34:02.394Z,95.7
2023-01-05T06:35:02.403Z,95.7
2023-01-05T06:36:02.387Z,95.7
2023-01-05T06:37:02.735Z,95.7
2023-01-05T06:38:02.420Z,95.7
2023-01-05T06:39:02.386Z,95.7
2023-01-05T06:40:02.466Z,95.7
2023-01-05T06:41:02.414Z,95.7
2023-01-05T06:42:02.413Z,95.7
2023-01-05T06:43:02.421Z,95.7
2023-01-05T06:44:02.394Z,95.7
2023-01-05T06:45:02.426Z,95.7
2023-01-05T06:46:02.445Z,96
2023-01-05T06:47:02.438Z,95.7
2023-01-05T06:48:02.407Z,96
2023-01-05T06:49:02.430Z,96
2023-01-05T06:50:02.451Z,95.7
2023-01-05T06:51:02.413Z,96
2023-01-05T06:52:02.469Z,95.7
2023-01-05T06:53:02.423Z,95.7
2023-01-05T06:54:02.449Z,95.7
2023-01-05T06:55:02.438Z,96
2023-01-05T06:56:02.421Z,95.7
2023-01-05T06:57:02.421Z,95.7
2023-01-05T06:58:02.416Z,95.7
2023-01-05T06:59:02.425Z,96
2023-01-05T07:00:02.509Z,96
2023-01-05T07:01:02.583Z,95.7
2023-01-05T07:02:02.578Z,96
2023-01-05T07:03:02.422Z,96
2023-01-05T07:04:02.485Z,96
2023-01-05T07:05:02.503Z,96
2023-01-05T07:06:02.420Z,95.7
2023-01-05T07:07:02.420Z,95.7
2023-01-05T07:08:02.439Z,96
2023-01-05T07:09:02.426Z,96
2023-01-05T07:10:02.479Z,96
2023-01-05T07:11:02.420Z,96
2023-01-05T07:12:02.443Z,96
2023-01-05T07:13:02.735Z,96
2023-01-05T07:14:02.442Z,96
2023-01-05T07:15:02.473Z,96.3
2023-01-05T07:16:02.477Z,96
2023-01-05T07:17:02.474Z,96
2023-01-05T07:18:02.439Z,95.7
2023-01-05T07:19:02.447Z,96
2023-01-05T07:20:02.498Z,96
2023-01-05T07:21:02.449Z,96
2023-01-05T07:22:02.435Z,96
2023-01-05T07:23:02.452Z,96
2023-01-05T07:24:02.435Z,95.7
2023-01-05T07:25:02.489Z,95.7
2023-01-05T07:26:02.441Z,96
2023-01-05T07:27:09.296Z,95.7
2023-01-05T07:28:02.517Z,96
2023-01-05T07:29:02.441Z,96
2023-01-05T07:30:02.520Z,95.7
2023-01-05T07:31:02.439Z,95.7
2023-01-05T07:32:02.512Z,95.7
2023-01-05T07:33:02.477Z,95.7
2023-01-05T07:34:02.443Z,95.7
2023-01-05T07:35:02.506Z,95.7
2023-01-05T07:36:02.448Z,95.7
2023-01-05T07:37:02.473Z,95.7
2023-01-05T07:38:02.466Z,95.7
2023-01-05T07:39:02.475Z,95.7
2023-01-05T07:40:02.526Z,95.7
2023-01-05T07:41:02.458Z,95.7
2023-01-05T07:42:02.452Z,95.7
2023-01-05T07:43:02.472Z,95.7
2023-01-05T07:44:02.520Z,95.7
2023-01-05T07:45:02.487Z,95.7
2023-01-05T07:46:02.530Z,95.7
2023-01-05T07:47:02.466Z,95.7
2023-01-05T07:48:02.476Z,95.7
2023-01-05T07:49:02.480Z,95.7
2023-01-05T07:50:02.491Z,95.7
2023-01-05T07:51:02.572Z,95.7
2023-01-05T07:52:02.470Z,95.7
2023-01-05T07:53:02.517Z,95.1
2023-01-05T07:54:02.499Z,95.7
2023-01-05T07:55:02.499Z,95.7
2023-01-05T07:56:02.465Z,95.7
2023-01-05T07:57:02.471Z,95.4
2023-01-05T07:58:02.487Z,95.7
2023-01-05T07:59:02.495Z,95.4
2023-01-05T08:00:02.500Z,95.7
2023-01-05T08:01:02.622Z,95.7
2023-01-05T08:02:02.706Z,95.7
2023-01-05T08:03:02.471Z,95.7
2023-01-05T08:04:02.519Z,95.7
2023-01-05T08:05:02.501Z,95.7
2023-01-05T08:06:02.507Z,95.7
2023-01-05T08:07:02.478Z,95.7
2023-01-05T08:08:02.482Z,95.7
2023-01-05T08:09:02.502Z,95.7
2023-01-05T08:11:02.498Z,95.7
2023-01-05T08:12:02.480Z,95.7
2023-01-05T08:13:02.496Z,95.7
2023-01-05T08:14:02.916Z,95.7
2023-01-05T08:15:02.517Z,95.7
2023-01-05T08:16:02.599Z,95.7
2023-01-05T08:17:02.524Z,95.7
2023-01-05T08:18:02.505Z,95.7
2023-01-05T08:19:05.211Z,95.7
2023-01-05T08:20:02.537Z,95.7
2023-01-05T08:21:02.500Z,95.7
2023-01-05T08:22:02.499Z,95.7
2023-01-05T08:23:02.496Z,95.7
2023-01-05T08:24:02.524Z,95.7
2023-01-05T08:25:02.506Z,95.4
2023-01-05T08:26:02.498Z,95.8
2023-01-05T08:27:02.598Z,95.7
2023-01-05T08:28:02.519Z,95.8
2023-01-05T08:29:02.530Z,95.4
2023-01-05T08:30:02.547Z,95.8
2023-01-05T08:31:02.521Z,95.8
2023-01-05T08:32:02.524Z,95.4
2023-01-05T08:33:02.520Z,95.5
2023-01-05T08:34:02.537Z,95.1
2023-01-05T08:35:02.540Z,95.8
2023-01-05T08:36:02.545Z,95.8
2023-01-05T08:37:02.543Z,95.5
2023-01-05T08:38:02.511Z,95.5
2023-01-05T08:39:02.535Z,95.1
2023-01-05T08:40:02.566Z,95.2
2023-01-05T08:41:02.536Z,95.2
2023-01-05T08:42:02.937Z,95.1
2023-01-05T08:43:00.504Z,95.1
2023-01-05T08:44:00.515Z,94.8
2023-01-05T08:45:00.523Z,95.2
2023-01-05T08:46:00.569Z,95.2
2023-01-05T08:47:00.517Z,95.2
2023-01-05T08:48:00.522Z,95.2
2023-01-05T08:49:00.503Z,94.8
2023-01-05T08:50:00.525Z,94.8
2023-01-05T08:51:00.522Z,94.9
2023-01-05T08:52:00.507Z,94.9
2023-01-05T08:53:00.543Z,94.8
2023-01-05T08:54:00.522Z,94.9
2023-01-05T08:55:00.542Z,95.2
2023-01-05T08:56:00.520Z,95.2
2023-01-05T08:57:00.512Z,94.8
2023-01-05T08:58:00.530Z,94.8
2023-01-05T08:59:00.515Z,95.2
2023-01-05T09:00:00.536Z,95.2
2023-01-05T09:01:00.558Z,95.2
2023-01-05T09:02:00.855Z,95.2
2023-01-05T09:03:00.597Z,94.9
2023-01-05T09:04:00.549Z,95.2
2023-01-05T09:05:00.575Z,94.9
2023-01-05T09:06:00.519Z,95.2
2023-01-05T09:07:00.526Z,95.2
2023-01-05T09:08:00.540Z,95.2
2023-01-05T09:09:00.530Z,95.2
2023-01-05T09:10:00.592Z,95.2
2023-01-05T09:11:00.578Z,95.1
2023-01-05T09:12:00.555Z,95.2
2023-01-05T09:13:00.546Z,95.2
2023-01-05T09:14:00.587Z,95.2
2023-01-05T09:15:00.682Z,95.2
2023-01-05T09:16:00.661Z,95.2
2023-01-05T09:17:08.587Z,95.2
2023-01-05T09:18:00.752Z,95.2
2023-01-05T09:19:00.672Z,95.2
2023-01-05T09:20:00.592Z,95.2
2023-01-05T09:21:00.729Z,95.1
2023-01-05T09:22:00.648Z,95.2
2023-01-05T09:23:00.725Z,95.2
2023-01-05T09:24:00.630Z,95.2
2023-01-05T09:25:00.748Z,95.5
2023-01-05T09:26:00.692Z,95.5
2023-01-05T09:27:00.719Z,95.2
2023-01-05T09:28:00.726Z,95.2
2023-01-05T09:29:00.737Z,95.2
2023-01-05T09:30:00.690Z,95.2
2023-01-05T09:31:00.895Z,95.5
2023-01-05T09:32:00.648Z,95.5
2023-01-05T09:33:00.733Z,95.5
2023-01-05T09:34:00.725Z,95.5
2023-01-05T09:35:00.671Z,95.5
2023-01-05T09:36:00.729Z,95.2
2023-01-05T09:37:00.706Z,95.5
2023-01-05T09:38:00.745Z,95.5
2023-01-05T09:39:00.684Z,95.2
2023-01-05T09:40:00.672Z,95.2
2023-01-05T09:41:00.787Z,95.2
2023-01-05T09:42:00.651Z,95.2
2023-01-05T09:43:00.721Z,95.2
2023-01-05T09:44:00.606Z,95.2
2023-01-05T09:45:00.571Z,95.2
2023-01-05T09:46:00.708Z,95.2
2023-01-05T09:47:00.649Z,95.2
2023-01-05T09:48:00.730Z,95.2
2023-01-05T09:49:00.584Z,95.2
2023-01-05T09:50:00.637Z,95.2
2023-01-05T09:51:00.584Z,95.2
2023-01-05T09:52:00.853Z,95.2
2023-01-05T09:53:00.596Z,95.2
2023-01-05T09:54:00.615Z,95.2
2023-01-05T09:55:00.599Z,95.2
2023-01-05T09:56:00.573Z,95.2
2023-01-05T09:57:09.587Z,95.2
2023-01-05T09:58:00.576Z,95.2
2023-01-05T09:59:00.613Z,95.2
2023-01-05T10:00:00.599Z,94.9
2023-01-05T10:01:00.597Z,95.3
2023-01-05T10:02:00.597Z,94.9
2023-01-05T10:03:00.619Z,94.9
2023-01-05T10:04:03.609Z,94.9
2023-01-05T10:05:00.722Z,94.9
2023-01-05T10:06:00.591Z,94.9
2023-01-05T10:07:00.603Z,94.9
2023-01-05T10:08:00.600Z,94.9
2023-01-05T10:09:00.627Z,94.9
2023-01-05T10:10:00.603Z,94.6
2023-01-05T10:11:00.609Z,94.6
2023-01-05T10:12:00.624Z,94.6
2023-01-05T10:13:00.591Z,94.9
2023-01-05T10:14:00.595Z,94.9
2023-01-05T10:15:00.638Z,94.9
2023-01-05T10:16:00.703Z,95.2
2023-01-05T10:17:30.729Z,95.2
2023-01-05T10:18:00.625Z,94.9
2023-01-05T10:19:00.636Z,94.9
2023-01-05T10:20:00.619Z,94.9
2023-01-05T10:21:00.603Z,95.2
2023-01-05T10:22:00.603Z,94.9
2023-01-05T10:23:00.614Z,94.9
2023-01-05T10:24:00.620Z,95
2023-01-05T10:25:00.628Z,95
2023-01-05T10:26:00.611Z,94.9
2023-01-05T10:27:25.046Z,95
2023-01-05T10:28:00.598Z,95
2023-01-05T10:29:00.615Z,94.7
2023-01-05T10:30:00.676Z,95
2023-01-05T10:31:00.685Z,94.7
2023-01-05T10:32:00.609Z,94.7
2023-01-05T10:33:27.800Z,94.7
2023-01-05T10:34:05.450Z,94.7
2023-01-05T10:35:00.678Z,94.4
2023-01-05T10:36:03.234Z,94.4
2023-01-05T10:37:09.314Z,94.1
2023-01-05T10:38:00.639Z,94.1
2023-01-05T10:39:00.638Z,94.1
2023-01-05T10:40:00.639Z,94.1
2023-01-05T10:41:00.616Z,94.1
2023-01-05T10:42:00.624Z,94.1
2023-01-05T10:43:00.637Z,94.1
2023-01-05T10:44:00.660Z,94.1
2023-01-05T10:45:00.648Z,94.1
2023-01-05T10:46:31.261Z,94.1
2023-01-05T10:47:00.673Z,94.1
2023-01-05T10:48:00.637Z,94.1
2023-01-05T10:49:00.620Z,94.1
2023-01-05T10:50:00.653Z,94.1
2023-01-05T10:51:00.626Z,93.8
2023-01-05T10:52:00.645Z,93.8
2023-01-05T10:53:00.649Z,93.8
2023-01-05T10:54:00.653Z,93.8
2023-01-05T10:55:00.650Z,92.9
2023-01-05T10:56:00.651Z,92.3
2023-01-05T10:57:00.658Z,92.9
2023-01-05T10:58:00.638Z,92.9
2023-01-05T10:59:00.665Z,92.9
2023-01-05T11:00:00.773Z,92.3
2023-01-05T11:01:00.639Z,92.3
2023-01-05T11:02:00.828Z,92
2023-01-05T11:03:00.713Z,89.8
2023-01-05T11:04:29.261Z,88.8
2023-01-05T11:05:00.769Z,89.2
2023-01-05T11:06:00.648Z,88.5
2023-01-05T11:07:00.647Z,88.5
2023-01-05T11:08:00.660Z,88.2
2023-01-05T11:09:00.667Z,88.2
2023-01-05T11:10:00.691Z,88.2
2023-01-05T11:11:00.669Z,88.5
2023-01-05T11:12:00.677Z,87.9
2023-01-05T11:13:00.664Z,87.9
2023-01-05T11:14:00.652Z,87
2023-01-05T11:15:00.749Z,86.6
2023-01-05T11:16:00.788Z,86
2023-01-05T11:17:00.680Z,85.7
2023-01-05T11:18:00.653Z,86.6
2023-01-05T11:19:00.667Z,86.6
2023-01-05T11:20:00.672Z,87.2
2023-01-05T11:21:00.658Z,86.6
2023-01-05T11:22:02.331Z,86
2023-01-05T11:23:00.670Z,85
2023-01-05T11:24:00.677Z,84.1
2023-01-05T11:25:00.707Z,85
2023-01-05T11:26:00.662Z,85.4
2023-01-05T11:27:00.678Z,84.7
2023-01-05T11:28:05.211Z,85.3
2023-01-05T11:29:00.679Z,85.3
2023-01-05T11:30:00.682Z,84.7
2023-01-05T11:31:00.743Z,84.7
2023-01-05T11:32:00.748Z,85
2023-01-05T11:33:00.667Z,84.7
2023-01-05T11:34:00.668Z,84.1
2023-01-05T11:35:00.702Z,84.1
2023-01-05T11:36:00.724Z,84.4
2023-01-05T11:37:07.388Z,84.1
2023-01-05T11:38:00.677Z,84.1
2023-01-05T11:39:00.694Z,84.1
2023-01-05T11:40:00.744Z,83.8
2023-01-05T11:41:00.694Z,83.5
2023-01-05T11:42:00.698Z,83.5
2023-01-05T11:43:00.741Z,83.5
2023-01-05T11:44:00.709Z,83.5
2023-01-05T11:45:00.712Z,84.1
2023-01-05T11:46:00.772Z,83.5
2023-01-05T11:47:00.709Z,82.9
2023-01-05T11:48:00.757Z,84.1
2023-01-05T11:49:00.689Z,83.2
2023-01-05T11:50:05.300Z,81.6
2023-01-05T11:51:00.694Z,82.6
2023-01-05T11:52:00.722Z,82.3
2023-01-05T11:53:00.715Z,82.3
2023-01-05T11:54:00.732Z,82.6
2023-01-05T11:55:00.728Z,82.9
2023-01-05T11:56:00.694Z,82.3
2023-01-05T11:57:00.697Z,82.9
2023-01-05T11:58:00.722Z,81.6
2023-01-05T11:59:00.708Z,81.6
2023-01-05T12:00:00.721Z,81.6
2023-01-05T12:01:00.778Z,81
2023-01-05T12:02:00.703Z,81.6
2023-01-05T12:03:00.827Z,81.6
2023-01-05T12:04:00.753Z,81
2023-01-05T12:05:00.709Z,81.6
2023-01-05T12:06:00.705Z,81.6
2023-01-05T12:07:00.713Z,81.6
2023-01-05T12:08:00.733Z,81.6
2023-01-05T12:09:00.772Z,81.6
2023-01-05T12:10:00.724Z,81.6
2023-01-05T12:11:00.708Z,81.7
2023-01-05T12:12:00.732Z,80.1
2023-01-05T12:13:00.736Z,80.7
2023-01-05T12:14:00.717Z,80.1
2023-01-05T12:15:00.716Z,80.7
2023-01-05T12:16:02.393Z,80.7
2023-01-05T12:17:01.388Z,80.7
2023-01-05T12:18:00.765Z,81
2023-01-05T12:19:00.723Z,81.3
2023-01-05T12:20:00.756Z,82.2
2023-01-05T12:21:00.723Z,81.6
2023-01-05T12:22:02.528Z,81.6
2023-01-05T12:23:00.748Z,82.3
2023-01-05T12:24:00.749Z,82.6
2023-01-05T12:25:00.741Z,82.9
2023-01-05T12:26:00.733Z,83.9
2023-01-05T12:27:00.727Z,83.5
2023-01-05T12:28:05.201Z,83.5
2023-01-05T12:33:27.350Z,84.2
2023-01-05T12:34:01.477Z,84.8
2023-01-05T12:34:02.643Z,84.8
2023-01-05T12:35:00.736Z,84.8
2023-01-05T12:36:00.744Z,84.8
2023-01-05T12:37:00.743Z,84.8
2023-01-05T12:38:00.769Z,84.8
2023-01-05T12:39:00.782Z,84.9
2023-01-05T12:40:00.741Z,84.2
2023-01-05T12:41:00.759Z,84.3
2023-01-05T12:42:00.760Z,84.2
2023-01-05T12:43:00.772Z,83.6
2023-01-05T12:44:00.748Z,83.6
2023-01-05T12:45:00.764Z,83.6
2023-01-05T12:46:00.743Z,82.7
2023-01-05T12:47:00.799Z,81.7
2023-01-05T12:48:00.770Z,82.4
2023-01-05T12:49:00.773Z,82.4
2023-01-05T12:50:00.762Z,82.7
2023-01-05T12:51:00.813Z,81.7
2023-01-05T12:52:06.288Z,82.1
2023-01-05T12:53:00.770Z,82.4
2023-01-05T12:54:00.788Z,82.7
2023-01-05T12:55:00.758Z,82.4
2023-01-05T12:56:00.818Z,83
2023-01-05T12:57:00.775Z,83.3
2023-01-05T12:58:00.781Z,83
2023-01-05T12:59:00.756Z,82.7
2023-01-05T13:00:00.807Z,82.7
2023-01-05T13:01:00.825Z,81.8
2023-01-05T13:02:00.880Z,81.8
2023-01-05T13:03:00.822Z,81.7
2023-01-05T13:04:00.787Z,82.4
2023-01-05T13:05:00.776Z,83
2023-01-05T13:06:00.786Z,83
2023-01-05T13:07:00.777Z,83
2023-01-05T13:08:00.767Z,82.7
2023-01-05T13:09:00.789Z,82.4
2023-01-05T13:10:03.275Z,82.4
2023-01-05T13:11:00.805Z,82.7
2023-01-05T13:12:00.779Z,83
2023-01-05T13:13:00.857Z,82.4
2023-01-05T13:14:00.777Z,82.7
2023-01-05T13:15:00.812Z,83
2023-01-05T13:16:00.872Z,83
2023-01-05T13:17:00.810Z,82.7
2023-01-05T13:18:00.800Z,82.4
2023-01-05T13:19:00.777Z,82.4
2023-01-05T13:20:00.794Z,82.1
2023-01-05T13:21:00.809Z,81.8
2023-01-05T13:22:00.782Z,82.7
2023-01-05T13:23:00.802Z,82.4
2023-01-05T13:24:00.804Z,82.4
2023-01-05T13:25:00.784Z,82.7
2023-01-05T13:26:00.815Z,82.4
2023-01-05T13:27:00.799Z,82
2023-01-05T13:28:00.824Z,82.7
2023-01-05T13:29:00.789Z,82.7
2023-01-05T13:30:00.804Z,83
2023-01-05T13:31:00.940Z,83
2023-01-05T13:32:00.864Z,83
2023-01-05T13:33:00.798Z,83.3
2023-01-05T13:34:00.800Z,83.3